createdAt,value
2019-01-05T00:00:01.311Z,31.03
2019-01-05T00:03:11.499Z,31.63
2019-01-05T00:06:04.508Z,30.83
2019-01-05T00:09:00.548Z,31.47
2019-01-05T00:12:08.151Z,31.97
2019-01-05T00:15:01.658Z,32.17
2019-01-05T00:18:03.273Z,32.10
2019-01-05T00:21:06.082Z,30.17
2019-01-05T00:24:01.627Z,32.23
2019-01-05T00:27:00.207Z,30.80
2019-01-05T00:30:01.896Z,31.20
2019-01-05T00:33:04.844Z,31.53
2019-01-05T00:36:31.367Z,30.87
2019-01-05T00:39:28.730Z,30.83
2019-01-05T00:42:19.880Z,31.00
2019-01-05T00:45:09.883Z,31.30
2019-01-05T00:48:01.725Z,31.67
2019-01-05T00:51:11.467Z,33.17
2019-01-05T00:54:11.680Z,31.43
2019-01-05T00:57:16.028Z,32.93
2019-01-05T01:03:36.475Z,31.00
2019-01-05T01:06:39.159Z,30.23
2019-01-05T01:09:32.026Z,31.13
2019-01-05T01:12:34.890Z,31.57
2019-01-05T01:15:24.764Z,30.93
2019-01-05T01:18:14.128Z,29.40
2019-01-05T01:21:05.259Z,29.97
2019-01-05T01:23:58.232Z,31.87
2019-01-05T01:27:16.081Z,29.43
2019-01-05T01:30:09.424Z,32.23
2019-01-05T01:32:59.836Z,31.90
2019-01-05T01:35:48.845Z,31.60
2019-01-05T01:39:08.132Z,31.87
2019-01-05T01:42:04.153Z,31.00
2019-01-05T01:44:57.606Z,30.23
2019-01-05T01:47:57.360Z,30.13
2019-01-05T01:50:53.815Z,30.37
2019-01-05T01:53:43.334Z,29.03
2019-01-05T01:56:56.107Z,28.83
2019-01-05T02:00:00.514Z,29.33
2019-01-05T02:03:08.070Z,28.03
2019-01-05T02:06:04.674Z,28.67
2019-01-05T02:09:02.074Z,27.87
2019-01-05T02:12:01.874Z,28.37
2019-01-05T02:14:59.227Z,26.93
2019-01-05T02:18:00.512Z,26.40
2019-01-05T02:21:14.850Z,25.93
2019-01-05T02:24:40.947Z,25.13
2019-01-05T02:28:16.078Z,25.10
2019-01-05T02:31:43.727Z,26.23
2019-01-05T02:35:11.234Z,26.00
2019-01-05T02:39:10.263Z,23.33
2019-01-05T02:42:24.343Z,23.60
2019-01-05T02:46:01.162Z,22.60
2019-01-05T02:49:22.169Z,19.00
2019-01-05T02:56:46.586Z,17.43
2019-01-05T03:00:06.051Z,17.20
2019-01-05T03:07:33.676Z,13.93
2019-01-05T03:11:05.074Z,14.23
2019-01-05T03:14:51.082Z,14.43
2019-01-05T03:18:36.252Z,14.53
2019-01-05T03:22:27.559Z,13.50
2019-01-05T03:25:53.993Z,13.00
2019-01-05T03:29:56.137Z,13.23
2019-01-05T03:33:54.140Z,13.13
2019-01-05T03:37:26.639Z,12.80
2019-01-05T03:40:51.914Z,13.60
2019-01-05T03:44:37.340Z,13.40
2019-01-05T03:48:40.241Z,13.17
2019-01-05T03:52:12.152Z,13.67
2019-01-05T03:55:51.222Z,13.37
2019-01-05T03:59:45.152Z,13.93
2019-01-05T04:03:20.048Z,12.83
2019-01-05T04:06:45.936Z,13.40
2019-01-05T04:10:37.615Z,12.63
2019-01-05T04:14:20.232Z,12.33
2019-01-05T04:17:57.775Z,11.80
2019-01-05T04:21:30.877Z,11.43
2019-01-05T04:24:52.488Z,11.57
2019-01-05T04:28:25.441Z,11.90
2019-01-05T04:32:23.530Z,11.63
2019-01-05T04:35:57.137Z,12.53
2019-01-05T04:39:32.118Z,12.87
2019-01-05T04:43:10.197Z,12.20
2019-01-05T04:46:25.582Z,12.10
2019-01-05T04:50:02.798Z,11.60
2019-01-05T04:53:37.993Z,11.53
2019-01-05T04:57:02.364Z,10.90
2019-01-05T05:00:34.398Z,10.73
2019-01-05T05:04:12.934Z,11.70
2019-01-05T05:07:30.535Z,12.17
2019-01-05T05:10:56.006Z,12.17
2019-01-05T05:14:33.086Z,12.90
2019-01-05T05:17:58.361Z,13.13
2019-01-05T05:21:31.855Z,12.90
2019-01-05T05:28:29.414Z,12.87
2019-01-05T05:31:55.129Z,13.70
2019-01-05T05:35:36.226Z,12.50
2019-01-05T05:39:01.607Z,12.77
2019-01-05T05:42:33.294Z,12.30
2019-01-05T05:46:27.203Z,12.40
2019-01-05T05:49:57.250Z,12.30
2019-01-05T05:57:06.062Z,12.03
2019-01-05T06:01:05.841Z,11.90
2019-01-05T06:04:30.874Z,12.00
2019-01-05T06:08:06.348Z,12.03
2019-01-05T06:11:39.433Z,11.40
2019-01-05T06:15:20.967Z,11.80
2019-01-05T06:18:49.980Z,11.33
2019-01-05T06:22:15.734Z,11.30
2019-01-05T06:25:52.277Z,11.43
2019-01-05T06:29:40.159Z,11.70
2019-01-05T06:33:11.096Z,11.60
2019-01-05T06:36:39.801Z,11.87
2019-01-05T06:40:31.105Z,11.10
2019-01-05T06:44:13.681Z,11.00
2019-01-05T06:48:09.552Z,12.20
2019-01-05T06:51:57.254Z,11.20
2019-01-05T06:55:24.641Z,10.47
2019-01-05T06:58:39.832Z,9.63
2019-01-05T07:02:05.377Z,10.27
2019-01-05T07:05:47.417Z,9.23
2019-01-05T07:09:26.625Z,8.10
2019-01-05T07:12:59.575Z,7.97
2019-01-05T07:16:42.005Z,7.50
2019-01-05T07:20:10.978Z,7.30
2019-01-05T07:23:52.170Z,7.37
2019-01-05T07:27:39.668Z,6.60
2019-01-05T07:31:14.161Z,6.60
2019-01-05T07:35:00.819Z,5.83
2019-01-05T07:38:13.370Z,5.80
2019-01-05T07:42:17.557Z,5.20
2019-01-05T07:45:46.483Z,4.70
2019-01-05T07:49:08.735Z,4.33
2019-01-05T07:52:34.596Z,4.47
2019-01-05T07:56:29.214Z,4.00
2019-01-05T08:00:04.121Z,3.93
2019-01-05T08:03:43.388Z,3.97
2019-01-05T08:07:21.248Z,4.30
2019-01-05T08:11:03.897Z,3.13
2019-01-05T08:14:32.900Z,3.47
2019-01-05T08:18:04.639Z,3.50
2019-01-05T08:21:34.174Z,3.00
2019-01-05T08:25:19.362Z,3.17
2019-01-05T08:28:58.520Z,3.67
2019-01-05T08:32:59.310Z,3.77
2019-01-05T08:36:34.589Z,4.00
2019-01-05T08:40:28.589Z,4.13
2019-01-05T08:44:30.692Z,4.33
2019-01-05T08:48:09.114Z,4.10
2019-01-05T08:51:44.049Z,4.23
2019-01-05T08:55:16.315Z,4.70
2019-01-05T08:58:55.592Z,4.37
2019-01-05T09:02:34.619Z,4.47
2019-01-05T09:05:58.987Z,4.30
2019-01-05T09:09:28.457Z,4.30
2019-01-05T09:12:52.046Z,4.33
2019-01-05T09:16:24.757Z,4.10
2019-01-05T09:20:07.765Z,4.13
2019-01-05T09:23:31.378Z,4.23
2019-01-05T09:26:59.622Z,4.27
2019-01-05T09:30:37.677Z,4.93
2019-01-05T09:34:19.245Z,4.40
2019-01-05T09:38:23.896Z,4.57
2019-01-05T09:42:11.047Z,4.60
2019-01-05T09:45:40.294Z,4.33
2019-01-05T09:49:05.031Z,4.70
2019-01-05T09:52:36.739Z,5.00
2019-01-05T09:56:00.586Z,5.07
2019-01-05T09:59:27.394Z,5.30
2019-01-05T10:03:08.735Z,4.70
2019-01-05T10:06:35.674Z,3.83
2019-01-05T10:10:32.558Z,4.17
2019-01-05T10:14:02.532Z,4.10
2019-01-05T10:17:37.094Z,3.77
2019-01-05T10:21:19.710Z,4.00
2019-01-05T10:24:56.774Z,4.03
2019-01-05T10:28:39.612Z,3.90
2019-01-05T10:32:09.782Z,5.00
2019-01-05T10:35:51.760Z,3.30
2019-01-05T10:39:18.415Z,3.50
2019-01-05T10:42:58.043Z,3.20
2019-01-05T10:46:24.716Z,3.30
2019-01-05T10:50:22.600Z,3.40
2019-01-05T10:54:22.518Z,3.57
2019-01-05T10:57:52.958Z,3.27
2019-01-05T11:01:42.646Z,3.30
2019-01-05T11:05:44.792Z,3.97
2019-01-05T11:09:49.572Z,3.60
2019-01-05T11:13:44.225Z,4.10
2019-01-05T11:17:12.594Z,4.00
2019-01-05T11:20:35.850Z,3.83
2019-01-05T11:24:25.831Z,4.07
2019-01-05T11:28:20.940Z,4.30
2019-01-05T11:31:47.986Z,4.83
2019-01-05T11:38:49.799Z,4.53
2019-01-05T11:42:11.945Z,4.17
2019-01-05T11:45:30.881Z,4.40
2019-01-05T11:49:33.926Z,4.50
2019-01-05T11:53:04.641Z,4.33
2019-01-05T11:56:58.113Z,4.23
2019-01-05T12:00:22.965Z,4.00
2019-01-05T12:04:30.111Z,4.10
2019-01-05T12:08:19.386Z,4.27
2019-01-05T12:12:15.537Z,3.97
2019-01-05T12:15:51.003Z,3.90
2019-01-05T12:19:25.173Z,4.13
2019-01-05T12:23:07.003Z,3.93
2019-01-05T12:27:03.130Z,4.37
2019-01-05T12:30:35.591Z,3.90
2019-01-05T12:34:14.360Z,4.27
2019-01-05T12:37:44.696Z,3.93
2019-01-05T12:41:11.028Z,4.80
2019-01-05T12:48:46.516Z,4.20
2019-01-05T12:52:12.535Z,4.37
2019-01-05T12:55:47.849Z,4.20
2019-01-05T12:59:35.859Z,4.20
2019-01-05T13:03:23.688Z,3.87
2019-01-05T13:06:51.369Z,4.57
2019-01-05T13:10:26.434Z,4.20
2019-01-05T13:13:55.732Z,4.67
2019-01-05T13:17:26.284Z,4.70
2019-01-05T13:20:42.877Z,4.87
2019-01-05T13:24:12.031Z,4.50
2019-01-05T13:27:57.260Z,4.83
2019-01-05T13:31:41.422Z,4.87
2019-01-05T13:35:14.546Z,4.30
2019-01-05T13:38:55.508Z,4.57
2019-01-05T13:42:31.157Z,6.03
2019-01-05T13:46:34.955Z,4.80
2019-01-05T13:50:12.571Z,5.00
2019-01-05T13:53:30.256Z,5.90
2019-01-05T13:56:58.390Z,6.30
2019-01-05T14:00:14.094Z,5.47
2019-01-05T14:03:11.423Z,5.00
2019-01-05T14:06:20.270Z,5.00
2019-01-05T14:09:16.312Z,4.30
2019-01-05T14:12:28.631Z,3.80
2019-01-05T14:15:23.837Z,3.70
2019-01-05T14:18:17.561Z,3.70
2019-01-05T14:21:14.037Z,3.67
2019-01-05T14:23:57.269Z,3.80
2019-01-05T14:26:50.851Z,3.90
2019-01-05T14:29:50.753Z,3.63
2019-01-05T14:32:47.097Z,3.53
2019-01-05T14:35:50.388Z,3.87
2019-01-05T14:38:54.885Z,4.07
2019-01-05T14:41:53.810Z,3.60
2019-01-05T14:44:52.463Z,3.53
2019-01-05T14:47:54.351Z,3.73
2019-01-05T14:50:48.781Z,4.10
2019-01-05T14:53:38.445Z,3.90
2019-01-05T14:56:32.631Z,4.47
2019-01-05T14:59:50.360Z,4.50
2019-01-05T15:02:52.056Z,4.90
2019-01-05T15:05:45.397Z,4.23
2019-01-05T15:08:38.085Z,4.57
2019-01-05T15:11:38.235Z,3.80
2019-01-05T15:14:41.447Z,3.93
2019-01-05T15:17:45.376Z,4.37
2019-01-05T15:20:45.650Z,3.70
2019-01-05T15:23:44.916Z,3.50
2019-01-05T15:26:47.581Z,4.00
2019-01-05T15:30:03.369Z,3.50
2019-01-05T15:33:11.542Z,3.63
2019-01-05T15:36:11.594Z,4.17
2019-01-05T15:39:01.710Z,3.57
2019-01-05T15:42:08.577Z,3.57
2019-01-05T15:45:03.159Z,3.63
2019-01-05T15:47:51.986Z,3.73
2019-01-05T15:50:56.056Z,3.77
2019-01-05T15:54:01.628Z,4.33
2019-01-05T15:56:56.917Z,4.07
2019-01-05T16:00:01.881Z,3.83
2019-01-05T16:02:58.258Z,4.23
2019-01-05T16:05:47.299Z,4.80
2019-01-05T16:08:41.446Z,4.70
2019-01-05T16:11:31.654Z,4.33
2019-01-05T16:14:21.436Z,4.83
2019-01-05T16:17:26.970Z,4.80
2019-01-05T16:20:33.113Z,4.63
2019-01-05T16:23:26.623Z,5.37
2019-01-05T16:26:17.644Z,5.23
2019-01-05T16:29:08.267Z,5.23
2019-01-05T16:32:11.928Z,5.63
2019-01-05T16:35:06.540Z,5.70
2019-01-05T16:38:09.264Z,5.43
2019-01-05T16:41:14.101Z,5.50
2019-01-05T16:44:12.202Z,5.27
2019-01-05T16:47:22.771Z,5.97
2019-01-05T16:50:18.285Z,6.23
2019-01-05T16:53:09.308Z,5.83
2019-01-05T16:56:04.024Z,5.83
2019-01-05T16:59:01.349Z,5.90
2019-01-05T17:01:52.733Z,6.37
2019-01-05T17:04:45.063Z,6.10
2019-01-05T17:07:57.039Z,6.07
2019-01-05T17:10:50.145Z,6.70
2019-01-05T17:13:40.994Z,5.90
2019-01-05T17:16:38.866Z,6.43
2019-01-05T17:19:36.692Z,5.40
2019-01-05T17:22:31.366Z,6.00
2019-01-05T17:25:18.290Z,6.30
2019-01-05T17:28:19.992Z,6.90
2019-01-05T17:31:18.833Z,6.63
2019-01-05T17:34:09.341Z,6.77
2019-01-05T17:37:05.240Z,6.70
2019-01-05T17:40:07.961Z,6.47
2019-01-05T17:43:10.819Z,6.80
2019-01-05T17:46:18.849Z,6.47
2019-01-05T17:49:24.495Z,6.63
2019-01-05T17:52:23.304Z,6.20
2019-01-05T17:55:16.132Z,6.50
2019-01-05T17:58:20.341Z,6.57
2019-01-05T18:01:13.697Z,6.47
2019-01-05T18:04:14.446Z,6.87
2019-01-05T18:07:11.663Z,6.73
2019-01-05T18:13:16.769Z,7.67
2019-01-05T18:16:07.210Z,7.17
2019-01-05T18:18:51.214Z,6.40
2019-01-05T18:21:53.014Z,6.00
2019-01-05T18:24:39.491Z,6.30
2019-01-05T18:27:31.322Z,6.47
2019-01-05T18:30:29.622Z,6.60
2019-01-05T18:33:29.136Z,6.50
2019-01-05T18:36:20.667Z,6.33
2019-01-05T18:39:30.711Z,6.53
2019-01-05T18:42:22.551Z,6.67
2019-01-05T18:45:18.555Z,6.07
2019-01-05T18:48:10.150Z,6.17
2019-01-05T18:51:15.312Z,5.83
2019-01-05T18:54:08.094Z,6.20
2019-01-05T18:57:02.526Z,5.97
2019-01-05T19:00:01.226Z,5.70
2019-01-05T19:02:57.816Z,6.10
2019-01-05T19:05:50.694Z,5.70
2019-01-05T19:08:45.712Z,5.40
2019-01-05T19:11:51.625Z,5.87
2019-01-05T19:15:03.853Z,6.70
2019-01-05T19:17:59.201Z,5.90
2019-01-05T19:20:54.996Z,5.70
2019-01-05T19:24:06.076Z,6.73
2019-01-05T19:27:02.410Z,6.67
2019-01-05T19:30:01.740Z,6.77
2019-01-05T19:33:00.944Z,6.27
2019-01-05T19:36:09.160Z,6.77
2019-01-05T19:39:06.631Z,7.20
2019-01-05T19:42:05.350Z,6.80
2019-01-05T19:45:05.717Z,7.30
2019-01-05T19:48:04.311Z,7.00
2019-01-05T19:50:58.322Z,7.80
2019-01-05T19:54:10.165Z,7.50
2019-01-05T19:57:02.486Z,7.40
2019-01-05T20:00:02.363Z,7.17
2019-01-05T20:03:04.792Z,7.23
2019-01-05T20:05:57.849Z,8.57
2019-01-05T20:09:02.807Z,8.03
2019-01-05T20:12:14.723Z,8.20
2019-01-05T20:15:24.457Z,8.20
2019-01-05T20:18:22.904Z,8.53
2019-01-05T20:21:21.923Z,8.40
2019-01-05T20:24:22.843Z,8.20
2019-01-05T20:27:17.260Z,8.23
2019-01-05T20:30:12.174Z,9.27
2019-01-05T20:33:01.368Z,10.10
2019-01-05T20:35:55.821Z,9.73
2019-01-05T20:38:58.138Z,9.77
2019-01-05T20:42:10.037Z,10.57
2019-01-05T20:45:09.703Z,10.90
2019-01-05T20:48:07.440Z,11.50
2019-01-05T20:50:59.392Z,10.30
2019-01-05T20:53:50.835Z,10.47
2019-01-05T20:56:53.218Z,10.50
2019-01-05T20:59:47.968Z,10.90
2019-01-05T21:02:39.407Z,10.73
2019-01-05T21:05:29.939Z,10.80
2019-01-05T21:08:30.296Z,9.77
2019-01-05T21:11:37.825Z,10.63
2019-01-05T21:14:30.220Z,11.73
2019-01-05T21:17:35.690Z,11.43
2019-01-05T21:20:29.428Z,10.40
2019-01-05T21:23:22.198Z,11.67
2019-01-05T21:26:24.461Z,11.07
2019-01-05T21:29:13.617Z,10.43
2019-01-05T21:32:13.122Z,11.00
2019-01-05T21:35:03.024Z,11.30
2019-01-05T21:38:03.285Z,11.67
2019-01-05T21:41:08.552Z,11.20
2019-01-05T21:43:57.845Z,11.80
2019-01-05T21:47:06.590Z,11.00
2019-01-05T21:50:17.058Z,12.07
2019-01-05T21:53:10.245Z,11.83
2019-01-05T21:56:01.153Z,12.40
2019-01-05T21:58:51.823Z,11.60
2019-01-05T22:01:39.745Z,125.33
2019-01-05T22:04:44.614Z,12.20
2019-01-05T22:07:33.502Z,10.90
2019-01-05T22:10:33.432Z,10.17
2019-01-05T22:13:24.974Z,10.73
2019-01-05T22:16:26.406Z,10.47
2019-01-05T22:19:21.430Z,10.40
2019-01-05T22:22:10.734Z,9.97
2019-01-05T22:25:00.401Z,9.40
2019-01-05T22:28:14.188Z,9.90
2019-01-05T22:31:04.742Z,9.03
2019-01-05T22:34:06.832Z,8.67
2019-01-05T22:37:19.052Z,8.83
2019-01-05T22:40:19.560Z,8.53
2019-01-05T22:43:16.040Z,7.57
2019-01-05T22:46:16.936Z,7.97
2019-01-05T22:49:11.770Z,7.23
2019-01-05T22:52:15.277Z,7.33
2019-01-05T22:55:16.462Z,7.37
2019-01-05T22:58:10.257Z,6.97
2019-01-05T23:01:17.030Z,6.63
2019-01-05T23:04:08.069Z,6.20
2019-01-05T23:07:10.198Z,5.97
2019-01-05T23:10:05.003Z,6.90
2019-01-05T23:13:19.895Z,6.47
2019-01-05T23:16:19.072Z,6.17
2019-01-05T23:19:09.329Z,6.10
2019-01-05T23:22:19.324Z,6.20
2019-01-05T23:25:11.056Z,6.73
2019-01-05T23:28:15.047Z,6.10
2019-01-05T23:31:25.142Z,6.57
2019-01-05T23:34:28.384Z,6.03
2019-01-05T23:37:20.080Z,6.50
2019-01-05T23:40:32.643Z,6.20
2019-01-05T23:43:25.243Z,6.07
2019-01-05T23:46:22.965Z,5.87
2019-01-05T23:49:19.748Z,5.67
2019-01-05T23:52:18.591Z,5.67
2019-01-05T23:55:14.432Z,5.77
2019-01-05T23:58:09.826Z,5.83
